TCA7766 SVVG-SVMI
Flight info
| Callsign | TCA7766 |
|---|---|
| Flight time | N/A |
| Altitude | 37000 |
| Route | VRA1 VRA DCT PBL ALDAK1 |
| Aircraft | A320/M-SDE3FGHIRWY/LB1 |
Departure
| Time | N/A |
|---|---|
| Airport | Juan Pablo Pérez Alfonso Airport (SVVG) |
Arrival
| Time | 2025-10-07 22:43 |
|---|---|
| Airport | Maiquetía Simón Bolívar International Airport (SVMI) |
| Time | Latitude | Longitude | Altitude | Speed | Heading |
|---|---|---|---|---|---|
| 2025-10-07 22:01 | 9.25225 | -70.90776 | 22914 ft | 410 kts | 64° |
| 2025-10-07 22:02 | 9.27795 | -70.85580 | 23602 ft | 416 kts | 64° |
| 2025-10-07 22:03 | 9.31703 | -70.77657 | 24506 ft | 422 kts | 64° |
| 2025-10-07 22:03 | 9.33020 | -70.74988 | 24783 ft | 424 kts | 64° |
| 2025-10-07 22:04 | 9.41038 | -70.58753 | 26476 ft | 435 kts | 63° |
| 2025-10-07 22:06 | 9.51871 | -70.37606 | 28415 ft | 448 kts | 62° |
| 2025-10-07 22:08 | 9.63534 | -70.14865 | 30092 ft | 462 kts | 62° |
| 2025-10-07 22:10 | 9.75498 | -69.91533 | 31463 ft | 469 kts | 62° |
| 2025-10-07 22:12 | 9.87436 | -69.68179 | 32913 ft | 453 kts | 62° |
| 2025-10-07 22:14 | 9.99048 | -69.45433 | 32973 ft | 456 kts | 62° |
| 2025-10-07 22:16 | 10.08922 | -69.21798 | 32953 ft | 457 kts | 70° |
| 2025-10-07 22:18 | 10.17377 | -68.97548 | 32884 ft | 455 kts | 70° |
| 2025-10-07 22:20 | 10.25636 | -68.73733 | 30770 ft | 434 kts | 71° |
| 2025-10-07 22:22 | 10.33361 | -68.51426 | 26958 ft | 403 kts | 71° |
| 2025-10-07 22:24 | 10.38820 | -68.35636 | 24166 ft | 389 kts | 71° |
| 2025-10-07 22:24 | 10.40608 | -68.30466 | 23150 ft | 387 kts | 71° |
| 2025-10-07 22:25 | 10.41492 | -68.27897 | 22653 ft | 384 kts | 71° |
| 2025-10-07 22:25 | 10.43237 | -68.22827 | 21713 ft | 378 kts | 71° |
| 2025-10-07 22:26 | 10.44957 | -68.17828 | 20792 ft | 372 kts | 71° |
| 2025-10-07 22:26 | 10.47500 | -68.10459 | 19478 ft | 364 kts | 71° |
| 2025-10-07 22:27 | 10.48937 | -68.05568 | 18599 ft | 359 kts | 77° |
| 2025-10-07 22:27 | 10.50100 | -68.00660 | 17706 ft | 355 kts | 77° |
| 2025-10-07 22:28 | 10.51254 | -67.95827 | 16865 ft | 349 kts | 77° |
| 2025-10-07 22:28 | 10.52385 | -67.91057 | 16005 ft | 344 kts | 77° |
| 2025-10-07 22:29 | 10.52943 | -67.88703 | 15627 ft | 341 kts | 77° |
| 2025-10-07 22:29 | 10.54047 | -67.84046 | 14822 ft | 337 kts | 77° |
| 2025-10-07 22:30 | 10.55137 | -67.79427 | 14017 ft | 334 kts | 77° |
| 2025-10-07 22:30 | 10.56757 | -67.72590 | 12778 ft | 328 kts | 77° |
| 2025-10-07 22:31 | 10.57800 | -67.68149 | 11979 ft | 323 kts | 77° |
| 2025-10-07 22:31 | 10.58268 | -67.63665 | 11173 ft | 318 kts | 88° |
| 2025-10-07 22:32 | 10.58419 | -67.59210 | 10463 ft | 310 kts | 88° |
| 2025-10-07 22:32 | 10.58496 | -67.57065 | 10326 ft | 299 kts | 88° |
| 2025-10-07 22:33 | 10.58641 | -67.52896 | 9660 ft | 293 kts | 88° |
| 2025-10-07 22:33 | 10.58783 | -67.48784 | 8855 ft | 290 kts | 88° |
| 2025-10-07 22:34 | 10.58919 | -67.44739 | 7743 ft | 283 kts | 88° |
| 2025-10-07 22:34 | 10.59124 | -67.38763 | 6334 ft | 278 kts | 89° |
| 2025-10-07 22:35 | 10.59255 | -67.34962 | 5403 ft | 261 kts | 88° |
| 2025-10-07 22:35 | 10.59379 | -67.31288 | 4580 ft | 260 kts | 89° |
| 2025-10-07 22:36 | 10.59627 | -67.23794 | 4017 ft | 268 kts | 88° |
| 2025-10-07 22:37 | 10.59692 | -67.21960 | 4012 ft | 250 kts | 88° |
| 2025-10-07 22:37 | 10.59793 | -67.18765 | 4072 ft | 194 kts | 89° |
| 2025-10-07 22:38 | 10.59857 | -67.16230 | 3545 ft | 172 kts | 89° |
| 2025-10-07 22:38 | 10.59945 | -67.12771 | 2305 ft | 158 kts | 89° |
| 2025-10-07 22:39 | 10.59999 | -67.10609 | 1743 ft | 151 kts | 89° |
| 2025-10-07 22:39 | 10.60027 | -67.08483 | 1514 ft | 151 kts | 91° |
| 2025-10-07 22:40 | 10.60022 | -67.07431 | 1271 ft | 148 kts | 88° |
| 2025-10-07 22:40 | 10.60086 | -67.05328 | 1007 ft | 148 kts | 88° |
| 2025-10-07 22:41 | 10.60177 | -67.03238 | 663 ft | 147 kts | 89° |
| 2025-10-07 22:41 | 10.60220 | -67.01150 | 273 ft | 147 kts | 89° |
| 2025-10-07 22:42 | 10.60263 | -66.99739 | 210 ft | 33 kts | 88° |
| 2025-10-07 22:42 | 10.60135 | -66.99780 | 216 ft | 13 kts | 267° |
| 2025-10-07 22:43 | 10.60037 | -66.99913 | 219 ft | 17 kts | 177° |
| 2025-10-07 22:43 | 10.59863 | -66.99929 | 220 ft | 0 kts | 179° |
| 2025-10-07 22:44 | 10.59838 | -66.99928 | 220 ft | 0 kts | 178° |